createdAt,value
2019-04-04T00:01:47.782Z,12.33
2019-04-04T00:04:16.401Z,12.64
2019-04-04T00:06:45.772Z,12.47
2019-04-04T00:09:15.203Z,12.12
2019-04-04T00:11:44.554Z,11.91
2019-04-04T00:14:13.914Z,12.18
2019-04-04T00:16:43.280Z,11.99
2019-04-04T00:19:12.637Z,12.79
2019-04-04T00:21:42.028Z,12.08
2019-04-04T00:24:11.382Z,11.97
2019-04-04T00:26:42.029Z,11.88
2019-04-04T00:29:11.966Z,12.06
2019-04-04T00:31:41.342Z,12.27
2019-04-04T00:34:13.491Z,12.15
2019-04-04T00:36:41.772Z,11.66
2019-04-04T00:39:11.202Z,11.52
2019-04-04T00:41:40.574Z,11.66
2019-04-04T00:44:09.951Z,11.36
2019-04-04T00:46:39.314Z,11.10
2019-04-04T00:49:08.687Z,11.58
2019-04-04T00:51:39.054Z,11.04
2019-04-04T00:54:09.134Z,11.78
2019-04-04T00:56:38.510Z,12.24
2019-04-04T00:59:07.873Z,13.31
2019-04-04T01:01:37.243Z,13.66
2019-04-04T01:04:06.607Z,13.91
2019-04-04T01:06:36.062Z,13.99
2019-04-04T01:09:11.542Z,13.74
2019-04-04T01:11:37.595Z,12.97
2019-04-04T01:14:07.104Z,12.89
2019-04-04T01:16:36.556Z,13.11
2019-04-04T01:19:05.967Z,12.83
2019-04-04T01:21:35.330Z,12.49
2019-04-04T01:24:04.761Z,12.42
2019-04-04T01:26:35.175Z,13.14
2019-04-04T01:29:05.911Z,12.89
2019-04-04T01:31:35.423Z,12.30
2019-04-04T01:34:04.853Z,12.08
2019-04-04T01:36:34.219Z,12.73
2019-04-04T01:39:05.751Z,13.31
2019-04-04T01:41:36.398Z,13.27
2019-04-04T01:44:06.336Z,12.68
2019-04-04T01:46:35.766Z,12.82
2019-04-04T01:49:05.205Z,13.55
2019-04-04T01:51:34.555Z,13.60
2019-04-04T01:54:03.985Z,13.74
2019-04-04T01:56:35.001Z,14.02
2019-04-04T01:59:04.886Z,13.96
2019-04-04T02:01:34.231Z,14.16
2019-04-04T02:04:03.622Z,14.15
2019-04-04T02:06:32.959Z,14.47
2019-04-04T02:09:02.850Z,14.77
2019-04-04T02:11:32.936Z,14.92
2019-04-04T02:14:02.385Z,15.06
2019-04-04T02:16:31.738Z,14.90
2019-04-04T02:19:01.093Z,15.09
2019-04-04T02:21:30.532Z,15.10
2019-04-04T02:24:01.315Z,14.95
2019-04-04T02:26:30.941Z,14.78
2019-04-04T02:29:00.309Z,14.69
2019-04-04T02:31:33.064Z,14.73
2019-04-04T02:34:05.274Z,14.85
2019-04-04T02:36:33.493Z,14.86
2019-04-04T02:39:11.639Z,14.99
2019-04-04T02:41:41.132Z,15.00
2019-04-04T02:44:10.598Z,14.84
2019-04-04T02:46:44.453Z,14.62
2019-04-04T02:49:11.172Z,14.27
2019-04-04T02:51:41.467Z,14.26
2019-04-04T02:54:10.943Z,13.95
2019-04-04T02:56:40.324Z,14.02
2019-04-04T02:59:09.798Z,13.99
2019-04-04T03:01:39.199Z,14.26
2019-04-04T03:04:08.589Z,14.01
2019-04-04T03:06:38.168Z,13.93
2019-04-04T03:09:10.104Z,13.75
2019-04-04T03:11:38.709Z,13.63
2019-04-04T03:14:08.129Z,13.61
2019-04-04T03:16:37.603Z,13.49
2019-04-04T03:19:09.881Z,13.54
2019-04-04T03:21:38.088Z,13.89
2019-04-04T03:24:07.513Z,13.80
2019-04-04T03:26:36.854Z,13.90
2019-04-04T03:29:08.409Z,13.84
2019-04-04T03:31:39.057Z,13.97
2019-04-04T03:34:10.932Z,13.80
2019-04-04T03:36:39.467Z,13.89
2019-04-04T03:39:08.927Z,13.65
2019-04-04T03:41:38.279Z,13.77
2019-04-04T03:44:07.630Z,14.08
2019-04-04T03:46:38.872Z,14.13
2019-04-04T03:49:08.065Z,13.91
2019-04-04T03:51:38.317Z,13.90
2019-04-04T03:54:23.242Z,13.84
2019-04-04T03:56:51.899Z,13.76
2019-04-04T03:59:21.375Z,13.90
2019-04-04T04:01:50.722Z,13.79
2019-04-04T04:04:20.185Z,14.10
2019-04-04T04:06:49.530Z,14.18
2019-04-04T04:09:18.884Z,14.09
2019-04-04T04:11:48.259Z,14.38
2019-04-04T04:14:21.643Z,14.24
2019-04-04T04:16:48.665Z,13.93
2019-04-04T04:19:18.015Z,14.08
2019-04-04T04:21:47.406Z,13.99
2019-04-04T04:24:16.810Z,14.26
2019-04-04T04:26:46.246Z,13.99
2019-04-04T04:29:15.593Z,14.35
2019-04-04T04:31:48.134Z,14.41
2019-04-04T04:34:16.085Z,14.37
2019-04-04T04:36:47.669Z,14.42
2019-04-04T04:39:16.490Z,14.31
2019-04-04T04:41:45.848Z,14.42
2019-04-04T04:44:15.197Z,14.28
2019-04-04T04:46:44.586Z,14.38
2019-04-04T04:49:13.951Z,14.28
2019-04-04T04:51:44.199Z,14.31
2019-04-04T04:54:13.638Z,14.07
2019-04-04T04:56:43.006Z,14.21
2019-04-04T04:59:13.334Z,14.32
2019-04-04T05:01:43.321Z,14.26
2019-04-04T05:04:12.670Z,14.22
2019-04-04T05:06:42.032Z,14.25
2019-04-04T05:09:13.684Z,14.22
2019-04-04T05:11:42.469Z,14.16
2019-04-04T05:14:11.808Z,14.12
2019-04-04T05:16:41.171Z,14.06
2019-04-04T05:19:10.517Z,14.19
2019-04-04T05:21:39.955Z,14.15
2019-04-04T05:24:09.306Z,14.07
2019-04-04T05:26:38.935Z,13.95
2019-04-04T05:29:08.415Z,14.22
2019-04-04T05:31:37.911Z,14.25
2019-04-04T05:34:07.375Z,14.05
2019-04-04T05:36:37.045Z,13.92
2019-04-04T05:39:07.831Z,14.12
2019-04-04T05:41:37.542Z,14.14
2019-04-04T05:44:09.134Z,14.40
2019-04-04T05:46:38.417Z,14.33
2019-04-04T05:49:08.394Z,14.26
2019-04-04T05:51:38.171Z,14.34
2019-04-04T05:54:08.337Z,14.36
2019-04-04T05:56:37.866Z,14.40
2019-04-04T05:59:07.247Z,14.38
2019-04-04T06:01:36.604Z,14.19
2019-04-04T06:04:06.050Z,14.18
2019-04-04T06:06:35.596Z,14.29
2019-04-04T06:09:07.177Z,14.13
2019-04-04T06:11:36.551Z,14.23
2019-04-04T06:14:05.910Z,14.60
2019-04-04T06:16:35.673Z,14.36
2019-04-04T06:19:05.307Z,14.46
2019-04-04T06:21:34.673Z,14.53
2019-04-04T06:24:04.174Z,14.58
2019-04-04T06:26:33.620Z,14.48
2019-04-04T06:29:05.549Z,14.52
2019-04-04T06:31:34.125Z,14.59
2019-04-04T06:34:05.785Z,14.59
2019-04-04T06:36:34.804Z,14.48
2019-04-04T06:39:07.008Z,14.63
2019-04-04T06:41:36.710Z,14.61
2019-04-04T06:44:06.141Z,14.62
2019-04-04T06:46:35.596Z,14.53
2019-04-04T06:49:05.178Z,14.59
2019-04-04T06:51:34.582Z,14.53
2019-04-04T06:54:04.116Z,14.79
2019-04-04T06:56:33.484Z,14.60
2019-04-04T06:59:02.852Z,14.54
2019-04-04T07:01:32.286Z,14.40
2019-04-04T07:04:01.681Z,14.48
2019-04-04T07:06:31.140Z,14.67
2019-04-04T07:09:00.508Z,14.53
2019-04-04T07:11:29.869Z,14.45
2019-04-04T07:13:59.764Z,14.24
2019-04-04T07:16:29.197Z,14.20
2019-04-04T07:18:58.585Z,14.07
2019-04-04T07:21:28.023Z,14.17
2019-04-04T07:23:59.503Z,14.02
2019-04-04T07:26:28.489Z,14.31
2019-04-04T07:28:57.975Z,14.15
2019-04-04T07:31:27.381Z,14.09
2019-04-04T07:33:56.844Z,14.28
2019-04-04T07:36:26.213Z,14.32
2019-04-04T07:38:55.655Z,14.28
2019-04-04T07:41:25.053Z,14.19
2019-04-04T07:43:54.456Z,14.10
2019-04-04T07:46:24.163Z,13.87
2019-04-04T07:48:53.557Z,14.04
2019-04-04T07:51:22.971Z,14.27
2019-04-04T07:53:52.370Z,14.35
2019-04-04T07:56:21.806Z,14.38
2019-04-04T07:58:51.197Z,14.58
2019-04-04T08:01:20.569Z,14.50
2019-04-04T08:03:49.950Z,14.71
2019-04-04T08:06:19.407Z,14.94
2019-04-04T08:08:48.786Z,14.92
2019-04-04T08:11:18.237Z,14.98
2019-04-04T08:13:47.600Z,15.03
2019-04-04T08:16:16.990Z,15.02
2019-04-04T08:18:46.352Z,15.03
2019-04-04T08:21:15.805Z,15.08
2019-04-04T08:23:45.245Z,15.03
2019-04-04T08:26:14.689Z,15.04
2019-04-04T08:28:44.074Z,15.10
2019-04-04T08:31:13.453Z,15.11
2019-04-04T08:33:42.805Z,15.04
2019-04-04T08:36:12.184Z,15.11
2019-04-04T08:38:41.545Z,15.06
2019-04-04T08:41:10.912Z,15.08
2019-04-04T08:43:40.266Z,15.13
2019-04-04T08:46:09.700Z,15.23
2019-04-04T08:48:39.141Z,15.26
2019-04-04T08:51:08.569Z,15.28
2019-04-04T08:53:40.173Z,15.33
2019-04-04T08:56:09.059Z,15.32
2019-04-04T08:58:38.433Z,15.24
2019-04-04T09:01:08.420Z,15.16
2019-04-04T09:03:37.896Z,15.12
2019-04-04T09:06:07.372Z,15.18
2019-04-04T09:08:36.746Z,15.32
2019-04-04T09:11:06.330Z,15.41
2019-04-04T09:13:35.769Z,15.51
2019-04-04T09:16:05.279Z,15.49
2019-04-04T09:18:34.637Z,15.68
2019-04-04T09:21:04.164Z,16.33
2019-04-04T09:23:33.525Z,16.23
2019-04-04T09:26:05.792Z,16.10
2019-04-04T09:28:33.998Z,16.69
2019-04-04T09:31:03.464Z,16.63
2019-04-04T09:33:33.044Z,16.69
2019-04-04T09:36:02.846Z,16.57
2019-04-04T09:38:32.201Z,16.57
2019-04-04T09:41:01.576Z,16.61
2019-04-04T09:43:30.956Z,16.42
2019-04-04T09:46:00.414Z,16.43
2019-04-04T09:48:29.860Z,16.48
2019-04-04T09:50:59.233Z,16.37
2019-04-04T09:53:28.586Z,16.37
2019-04-04T09:55:57.967Z,16.33
2019-04-04T09:58:27.357Z,16.54
2019-04-04T10:00:56.723Z,16.56
2019-04-04T10:03:26.768Z,16.62
2019-04-04T10:05:56.223Z,16.56
2019-04-04T10:08:25.595Z,16.44
2019-04-04T10:10:55.035Z,16.42
2019-04-04T10:13:24.479Z,16.39
2019-04-04T10:15:53.921Z,16.53
2019-04-04T10:18:23.382Z,16.51
2019-04-04T10:20:54.402Z,16.48
2019-04-04T10:23:23.790Z,17.40
2019-04-04T10:25:53.165Z,17.49
2019-04-04T10:28:23.502Z,16.95
2019-04-04T10:30:53.042Z,17.47
2019-04-04T10:33:24.613Z,17.30
2019-04-04T10:35:53.975Z,17.05
2019-04-04T10:38:23.401Z,17.03
2019-04-04T10:40:52.851Z,17.06
2019-04-04T10:43:22.298Z,16.97
2019-04-04T10:45:51.672Z,17.11
2019-04-04T10:48:21.045Z,17.59
2019-04-04T10:50:50.488Z,18.15
2019-04-04T10:53:19.932Z,18.21
2019-04-04T10:55:49.373Z,17.64
2019-04-04T10:58:18.738Z,17.49
2019-04-04T11:00:48.162Z,17.56
2019-04-04T11:03:17.572Z,17.62
2019-04-04T11:05:46.947Z,17.93
2019-04-04T11:08:16.561Z,17.84
2019-04-04T11:10:46.006Z,18.36
2019-04-04T11:13:15.380Z,18.28
2019-04-04T11:15:44.830Z,18.04
2019-04-04T11:18:14.206Z,18.07
2019-04-04T11:20:43.574Z,18.66
2019-04-04T11:23:12.964Z,17.92
2019-04-04T11:25:42.317Z,17.88
2019-04-04T11:28:11.689Z,17.81
2019-04-04T11:30:41.087Z,17.76
2019-04-04T11:33:10.454Z,17.77
2019-04-04T11:35:39.900Z,18.07
2019-04-04T11:38:09.291Z,17.91
2019-04-04T11:40:38.838Z,18.16
2019-04-04T11:43:08.211Z,17.90
2019-04-04T11:45:37.643Z,17.99
2019-04-04T11:48:07.108Z,18.93
2019-04-04T11:50:36.489Z,19.19
2019-04-04T11:53:05.959Z,18.86
2019-04-04T11:55:35.312Z,18.65
2019-04-04T11:58:05.030Z,18.56
2019-04-04T12:00:36.424Z,18.41
2019-04-04T12:03:05.807Z,18.41
2019-04-04T12:05:35.186Z,19.56
2019-04-04T12:08:04.670Z,19.65
2019-04-04T12:10:34.040Z,19.73
2019-04-04T12:13:03.412Z,19.86
2019-04-04T12:15:32.814Z,20.30
2019-04-04T12:18:02.176Z,20.86
2019-04-04T12:20:31.534Z,21.15
2019-04-04T12:23:00.909Z,21.34
2019-04-04T12:25:30.278Z,21.73
2019-04-04T12:27:59.719Z,21.96
2019-04-04T12:30:29.084Z,21.49
2019-04-04T12:32:58.469Z,21.77
2019-04-04T12:35:27.841Z,21.34
2019-04-04T12:37:57.323Z,21.09
2019-04-04T12:40:26.684Z,20.90
2019-04-04T12:42:56.137Z,20.91
2019-04-04T12:45:25.494Z,21.21
2019-04-04T12:47:54.866Z,22.10
2019-04-04T12:50:24.238Z,22.35
2019-04-04T12:52:53.681Z,22.44
2019-04-04T12:55:23.297Z,23.52
2019-04-04T12:57:52.639Z,23.49
2019-04-04T13:00:22.116Z,24.51
2019-04-04T13:02:51.475Z,24.37
2019-04-04T13:05:20.860Z,25.19
2019-04-04T13:07:50.226Z,24.81
2019-04-04T13:10:32.076Z,24.18
2019-04-04T13:12:50.832Z,25.80
2019-04-04T13:15:20.278Z,23.96
2019-04-04T13:17:49.664Z,24.71
2019-04-04T13:20:19.284Z,23.20
2019-04-04T13:22:48.668Z,24.72
2019-04-04T13:25:18.113Z,25.71
2019-04-04T13:27:47.542Z,24.18
2019-04-04T13:30:17.000Z,25.24
2019-04-04T13:32:46.383Z,25.80
2019-04-04T13:35:15.926Z,24.79
2019-04-04T13:37:45.573Z,24.93
2019-04-04T13:40:15.177Z,24.47
2019-04-04T13:42:44.856Z,23.85
2019-04-04T13:45:14.461Z,23.94
2019-04-04T13:47:43.933Z,23.25
2019-04-04T13:50:13.755Z,24.21
2019-04-04T13:52:43.119Z,24.43
2019-04-04T13:55:12.657Z,24.09
2019-04-04T13:57:42.091Z,23.40
2019-04-04T14:00:11.711Z,22.81
2019-04-04T14:02:41.067Z,22.30
2019-04-04T14:05:14.047Z,21.82
2019-04-04T14:07:43.710Z,21.56
2019-04-04T14:10:12.832Z,20.90
2019-04-04T14:12:42.184Z,20.48
2019-04-04T14:15:11.691Z,20.24
2019-04-04T14:17:43.673Z,20.17
2019-04-04T14:20:12.424Z,20.62
2019-04-04T14:22:41.782Z,21.28
2019-04-04T14:25:11.435Z,21.54
2019-04-04T14:27:40.861Z,20.43
2019-04-04T14:30:11.193Z,20.51
2019-04-04T14:32:40.542Z,20.57
2019-04-04T14:35:10.171Z,21.68
2019-04-04T14:37:39.599Z,20.98
2019-04-04T14:40:09.307Z,22.34
2019-04-04T14:42:38.749Z,21.90
2019-04-04T14:45:08.201Z,22.10
2019-04-04T14:47:37.641Z,21.59
2019-04-04T14:50:07.509Z,21.13
2019-04-04T14:52:39.362Z,20.95
2019-04-04T14:55:08.182Z,20.93
2019-04-04T14:57:37.560Z,20.61
2019-04-04T15:00:09.184Z,20.49
2019-04-04T15:02:38.613Z,20.32
2019-04-04T15:05:08.159Z,19.89
2019-04-04T15:07:37.590Z,19.77
2019-04-04T15:10:07.363Z,19.79
2019-04-04T15:12:36.728Z,19.92
2019-04-04T15:15:06.467Z,19.55
2019-04-04T15:17:35.905Z,19.46
2019-04-04T15:20:05.658Z,19.28
2019-04-04T15:22:35.018Z,19.24
2019-04-04T15:25:04.572Z,19.15
2019-04-04T15:27:33.939Z,19.05
2019-04-04T15:30:03.393Z,18.33
2019-04-04T15:32:32.777Z,17.79
2019-04-04T15:35:02.205Z,17.92
2019-04-04T15:37:31.562Z,17.94
2019-04-04T15:40:01.001Z,18.02
2019-04-04T15:42:30.364Z,17.33
2019-04-04T15:44:59.788Z,17.73
2019-04-04T15:47:29.178Z,17.27
2019-04-04T15:49:58.568Z,17.17
2019-04-04T15:52:27.929Z,17.10
2019-04-04T15:54:57.272Z,16.70
2019-04-04T15:57:26.642Z,15.84
2019-04-04T15:59:56.001Z,15.61
2019-04-04T16:02:25.447Z,16.35
2019-04-04T16:04:54.878Z,15.91
2019-04-04T16:07:24.316Z,15.61
2019-04-04T16:09:53.691Z,16.26
2019-04-04T16:12:23.031Z,16.89
2019-04-04T16:14:52.410Z,17.06
2019-04-04T16:17:21.776Z,17.09
2019-04-04T16:19:51.130Z,17.14
2019-04-04T16:22:20.496Z,16.80
2019-04-04T16:24:49.851Z,16.60
2019-04-04T16:27:19.240Z,16.61
2019-04-04T16:29:48.586Z,16.37
2019-04-04T16:32:17.942Z,16.71
2019-04-04T16:34:47.444Z,16.94
2019-04-04T16:37:16.876Z,16.78
2019-04-04T16:39:46.299Z,16.49
2019-04-04T16:42:15.966Z,16.27
2019-04-04T16:44:45.311Z,15.72
2019-04-04T16:47:15.219Z,15.51
2019-04-04T16:49:44.570Z,15.80
2019-04-04T16:52:14.025Z,15.39
2019-04-04T16:54:43.451Z,14.69
2019-04-04T16:57:12.817Z,13.91
2019-04-04T16:59:42.177Z,15.53
2019-04-04T17:02:11.606Z,14.30
2019-04-04T17:04:41.245Z,13.93
2019-04-04T17:07:10.680Z,14.97
2019-04-04T17:09:40.040Z,14.11
2019-04-04T17:12:14.779Z,14.01
2019-04-04T17:14:40.515Z,14.14
2019-04-04T17:17:09.936Z,14.14
2019-04-04T17:19:39.287Z,14.09
2019-04-04T17:22:08.659Z,13.27
2019-04-04T17:24:38.134Z,13.05
2019-04-04T17:27:07.564Z,13.29
2019-04-04T17:29:36.992Z,12.87
2019-04-04T17:32:06.526Z,12.78
2019-04-04T17:34:35.875Z,12.65
2019-04-04T17:37:05.363Z,12.76
2019-04-04T17:39:34.995Z,13.06
2019-04-04T17:42:04.436Z,12.22
2019-04-04T17:44:34.291Z,12.29
2019-04-04T17:47:04.340Z,11.96
2019-04-04T17:49:34.032Z,11.92
2019-04-04T17:52:04.141Z,12.21
2019-04-04T17:54:33.615Z,12.84
2019-04-04T17:57:02.971Z,12.02
2019-04-04T17:59:32.325Z,12.64
2019-04-04T18:02:01.701Z,12.20
2019-04-04T18:04:31.068Z,12.09
2019-04-04T18:07:00.445Z,12.22
2019-04-04T18:09:32.135Z,12.48
2019-04-04T18:12:00.922Z,12.07
2019-04-04T18:14:30.329Z,11.83
2019-04-04T18:16:59.642Z,12.59
2019-04-04T18:19:29.022Z,12.10
2019-04-04T18:21:58.462Z,12.62
2019-04-04T18:24:27.832Z,13.98
2019-04-04T18:26:57.198Z,14.52
2019-04-04T18:29:26.606Z,14.27
2019-04-04T18:31:55.954Z,12.71
2019-04-04T18:34:25.896Z,13.46
2019-04-04T18:36:55.435Z,14.53
2019-04-04T18:39:26.577Z,14.99
2019-04-04T18:41:55.967Z,14.93
2019-04-04T18:44:25.340Z,14.92
2019-04-04T18:46:54.784Z,14.62
2019-04-04T18:49:24.180Z,14.97
2019-04-04T18:51:53.547Z,13.96
2019-04-04T18:54:22.907Z,12.92
2019-04-04T18:56:52.255Z,12.21
2019-04-04T18:59:21.638Z,13.02
2019-04-04T19:01:51.060Z,12.24
2019-04-04T19:04:20.448Z,12.23
2019-04-04T19:06:49.884Z,13.12
2019-04-04T19:09:19.332Z,12.60
2019-04-04T19:11:48.761Z,11.61
2019-04-04T19:14:18.198Z,11.75
2019-04-04T19:16:47.615Z,11.88
2019-04-04T19:19:17.067Z,11.68
2019-04-04T19:21:46.419Z,11.53
2019-04-04T19:24:16.117Z,12.88
2019-04-04T19:26:45.572Z,12.13
2019-04-04T19:29:14.920Z,11.89
2019-04-04T19:31:44.360Z,12.55
2019-04-04T19:34:13.828Z,12.97
2019-04-04T19:36:43.302Z,13.00
2019-04-04T19:39:17.050Z,12.23
2019-04-04T19:41:46.487Z,13.05
2019-04-04T19:44:15.950Z,12.99
2019-04-04T19:46:45.408Z,12.75
2019-04-04T19:49:14.795Z,12.91
2019-04-04T19:51:44.253Z,13.07
2019-04-04T19:54:13.631Z,11.78
2019-04-04T19:56:43.010Z,11.84
2019-04-04T19:59:12.382Z,12.81
2019-04-04T20:01:41.832Z,12.80
2019-04-04T20:04:11.213Z,11.88
2019-04-04T20:06:40.603Z,12.55
2019-04-04T20:09:10.035Z,12.26
2019-04-04T20:11:39.416Z,11.83
2019-04-04T20:14:08.871Z,11.50
2019-04-04T20:16:38.342Z,11.47
2019-04-04T20:19:07.717Z,11.81
2019-04-04T20:21:37.131Z,12.12
2019-04-04T20:24:06.652Z,10.91
2019-04-04T20:26:36.032Z,11.98
2019-04-04T20:29:05.468Z,11.94
2019-04-04T20:31:34.906Z,12.56
2019-04-04T20:34:06.029Z,11.26
2019-04-04T20:36:35.366Z,11.66
2019-04-04T20:39:06.909Z,11.66
2019-04-04T20:41:36.269Z,11.10
2019-04-04T20:44:05.848Z,10.83
2019-04-04T20:46:35.329Z,10.89
2019-04-04T20:49:04.790Z,11.86
2019-04-04T20:51:34.176Z,11.55
2019-04-04T20:54:03.689Z,11.55
2019-04-04T20:56:33.059Z,11.27
2019-04-04T20:59:02.427Z,11.46
2019-04-04T21:01:31.810Z,11.31
2019-04-04T21:04:01.221Z,11.94
2019-04-04T21:06:30.591Z,11.52
2019-04-04T21:09:00.079Z,10.61
2019-04-04T21:11:29.449Z,11.79
2019-04-04T21:13:58.811Z,11.76
2019-04-04T21:16:28.292Z,10.81
2019-04-04T21:18:57.651Z,12.41
2019-04-04T21:21:27.431Z,11.85
2019-04-04T21:23:57.863Z,11.43
2019-04-04T21:26:27.242Z,11.47
2019-04-04T21:28:56.610Z,10.96
2019-04-04T21:31:25.976Z,10.90
2019-04-04T21:33:55.363Z,10.84
2019-04-04T21:36:24.841Z,12.35
2019-04-04T21:38:54.224Z,12.59
2019-04-04T21:41:23.589Z,12.26
2019-04-04T21:43:52.974Z,11.88
2019-04-04T21:46:22.351Z,11.41
2019-04-04T21:48:51.753Z,11.92
2019-04-04T21:51:21.181Z,11.50
2019-04-04T21:53:50.614Z,11.32
2019-04-04T21:56:19.979Z,13.30
2019-04-04T21:58:49.354Z,12.72
2019-04-04T22:01:18.968Z,11.90
2019-04-04T22:03:48.419Z,11.66
2019-04-04T22:06:17.867Z,10.93
2019-04-04T22:08:47.228Z,10.66
2019-04-04T22:11:16.612Z,10.51
2019-04-04T22:13:45.978Z,10.76
2019-04-04T22:16:15.346Z,9.98
2019-04-04T22:18:44.709Z,10.72
2019-04-04T22:21:14.075Z,10.93
2019-04-04T22:23:43.429Z,10.52
2019-04-04T22:26:12.807Z,10.30
2019-04-04T22:28:42.191Z,10.40
2019-04-04T22:31:11.530Z,10.02
2019-04-04T22:33:40.979Z,10.65
2019-04-04T22:36:10.412Z,10.77
2019-04-04T22:38:39.832Z,11.27
2019-04-04T22:41:09.134Z,10.80
2019-04-04T22:43:38.510Z,11.34
2019-04-04T22:46:08.142Z,11.32
2019-04-04T22:48:37.528Z,11.00
2019-04-04T22:51:07.254Z,11.91
2019-04-04T22:53:36.744Z,11.31
2019-04-04T22:56:06.182Z,10.78
2019-04-04T22:58:35.548Z,10.31
2019-04-04T23:01:05.005Z,11.06
2019-04-04T23:03:34.407Z,11.07
2019-04-04T23:06:03.859Z,10.25
2019-04-04T23:08:33.236Z,10.12
2019-04-04T23:11:02.619Z,10.73
2019-04-04T23:13:31.995Z,11.34
2019-04-04T23:16:01.417Z,12.16
2019-04-04T23:18:30.818Z,12.31
2019-04-04T23:21:00.182Z,11.30
2019-04-04T23:23:29.560Z,10.96
2019-04-04T23:25:58.919Z,11.12
2019-04-04T23:28:28.366Z,10.43
2019-04-04T23:30:57.810Z,10.03
2019-04-04T23:33:27.182Z,9.91
2019-04-04T23:35:56.541Z,10.36
2019-04-04T23:38:25.941Z,9.95
2019-04-04T23:40:55.374Z,10.72
2019-04-04T23:43:24.738Z,10.45
2019-04-04T23:45:54.094Z,10.84
2019-04-04T23:48:23.473Z,10.82
2019-04-04T23:50:52.841Z,10.96
2019-04-04T23:53:22.202Z,10.46
2019-04-04T23:55:51.603Z,11.20
2019-04-04T23:58:20.984Z,12.04
